createdAt,value
2023-02-18T00:00:34.271Z,100.00
2023-02-18T00:03:26.645Z,100.00
2023-02-18T00:05:59.436Z,100.00
2023-02-18T00:08:31.728Z,100.00
2023-02-18T00:11:06.113Z,100.00
2023-02-18T00:13:40.100Z,100.00
2023-02-18T00:16:14.105Z,100.00
2023-02-18T00:18:46.510Z,100.00
2023-02-18T00:21:19.356Z,100.00
2023-02-18T00:23:51.626Z,100.00
2023-02-18T00:26:25.882Z,100.00
2023-02-18T00:28:58.537Z,100.00
2023-02-18T00:31:34.026Z,100.00
2023-02-18T00:34:07.682Z,99.61
2023-02-18T00:36:41.595Z,96.53
2023-02-18T00:39:14.631Z,95.08
2023-02-18T00:41:47.278Z,93.45
2023-02-18T00:44:20.711Z,93.63
2023-02-18T00:46:53.613Z,91.28
2023-02-18T00:49:28.914Z,91.43
2023-02-18T00:52:02.228Z,92.46
2023-02-18T00:54:34.555Z,89.40
2023-02-18T00:57:07.367Z,88.91
2023-02-18T00:59:39.954Z,89.83
2023-02-18T01:02:12.270Z,87.47
2023-02-18T01:04:44.559Z,86.85
2023-02-18T01:07:17.294Z,87.23
2023-02-18T01:09:52.417Z,86.08
2023-02-18T01:12:25.567Z,82.72
2023-02-18T01:14:58.002Z,82.16
2023-02-18T01:17:31.041Z,83.68
2023-02-18T01:20:03.427Z,82.11
2023-02-18T01:22:36.556Z,82.96
2023-02-18T01:25:14.238Z,80.94
2023-02-18T01:27:46.582Z,82.43
2023-02-18T01:30:22.428Z,82.60
2023-02-18T01:32:56.267Z,82.93
2023-02-18T01:35:31.658Z,83.05
2023-02-18T01:38:05.661Z,81.78
2023-02-18T01:40:47.190Z,82.82
2023-02-18T01:43:22.415Z,84.41
2023-02-18T01:46:07.922Z,83.84
2023-02-18T01:48:46.729Z,83.65
2023-02-18T01:51:27.576Z,85.15
2023-02-18T01:54:04.500Z,84.94
2023-02-18T01:56:43.530Z,84.47
2023-02-18T01:59:23.383Z,84.39
2023-02-18T02:01:59.607Z,83.33
2023-02-18T02:04:36.885Z,84.31
2023-02-18T02:07:10.207Z,84.72
2023-02-18T02:09:46.542Z,85.48
2023-02-18T02:12:34.795Z,85.73
2023-02-18T02:15:42.586Z,85.42
2023-02-18T02:18:28.868Z,85.71
2023-02-18T02:21:43.624Z,85.92
2023-02-18T02:24:35.225Z,85.90
2023-02-18T02:27:26.336Z,85.33
2023-02-18T02:30:36.792Z,85.87
2023-02-18T02:33:42.132Z,86.10
2023-02-18T02:36:18.475Z,86.10
2023-02-18T02:39:03.950Z,85.05
2023-02-18T02:41:52.536Z,83.91
2023-02-18T02:44:34.700Z,84.33
2023-02-18T02:47:16.896Z,83.77
2023-02-18T02:49:55.116Z,83.43
2023-02-18T02:52:33.765Z,81.68
2023-02-18T02:55:10.907Z,82.89
2023-02-18T02:57:56.977Z,81.45
2023-02-18T03:00:47.505Z,81.98
2023-02-18T03:03:39.854Z,81.53
2023-02-18T03:06:37.822Z,79.94
2023-02-18T03:09:24.982Z,80.20
2023-02-18T03:12:04.378Z,79.96
2023-02-18T03:14:48.608Z,79.73
2023-02-18T03:17:29.166Z,79.92
2023-02-18T03:20:09.735Z,80.10
2023-02-18T03:22:43.724Z,78.82
2023-02-18T03:25:20.229Z,79.57
2023-02-18T03:27:57.831Z,80.14
2023-02-18T03:30:34.939Z,78.74
2023-02-18T03:33:15.676Z,77.41
2023-02-18T03:35:51.198Z,79.29
2023-02-18T03:38:27.384Z,79.11
2023-02-18T03:41:03.092Z,79.60
2023-02-18T03:43:35.620Z,79.22
2023-02-18T03:46:09.336Z,78.79
2023-02-18T03:48:41.955Z,79.50
2023-02-18T03:51:15.324Z,80.70
2023-02-18T03:53:48.397Z,80.19
2023-02-18T03:56:21.762Z,80.13
2023-02-18T03:58:54.416Z,80.85
2023-02-18T04:01:29.957Z,81.20
2023-02-18T04:04:07.948Z,81.51
2023-02-18T04:06:40.197Z,81.38
2023-02-18T04:09:13.159Z,81.46
2023-02-18T04:11:45.778Z,81.78
2023-02-18T04:14:18.108Z,81.70
2023-02-18T04:16:50.429Z,80.99
2023-02-18T04:19:22.957Z,80.75
2023-02-18T04:21:55.421Z,81.01
2023-02-18T04:24:28.100Z,80.33
2023-02-18T04:27:02.033Z,80.20
2023-02-18T04:29:34.233Z,79.86
2023-02-18T04:32:08.488Z,80.48
2023-02-18T04:34:40.798Z,79.40
2023-02-18T04:37:14.401Z,79.38
2023-02-18T04:39:46.726Z,78.49
2023-02-18T04:42:19.359Z,78.20
2023-02-18T04:44:51.627Z,77.39
2023-02-18T04:47:24.049Z,76.94
2023-02-18T04:49:56.595Z,77.53
2023-02-18T04:52:29.042Z,76.34
2023-02-18T04:55:03.780Z,76.15
2023-02-18T04:57:36.242Z,76.99
2023-02-18T05:00:15.301Z,75.69
2023-02-18T05:02:51.451Z,74.95
2023-02-18T05:05:23.856Z,75.45
2023-02-18T05:07:56.423Z,75.13
2023-02-18T05:10:28.770Z,75.58
2023-02-18T05:13:01.132Z,75.28
2023-02-18T05:15:36.193Z,74.96
2023-02-18T05:18:08.765Z,74.39
2023-02-18T05:20:41.128Z,75.06
2023-02-18T05:23:13.575Z,75.05
2023-02-18T05:25:45.877Z,72.75
2023-02-18T05:28:19.484Z,73.56
2023-02-18T05:30:55.131Z,73.95
2023-02-18T05:33:28.581Z,74.10
2023-02-18T05:36:03.188Z,73.86
2023-02-18T05:38:36.796Z,74.36
2023-02-18T05:41:13.179Z,73.97
2023-02-18T05:44:07.170Z,73.98
2023-02-18T05:46:42.205Z,72.90
2023-02-18T05:49:15.009Z,74.24
2023-02-18T05:51:50.005Z,74.12
2023-02-18T05:54:25.258Z,73.34
2023-02-18T05:56:57.852Z,74.02
2023-02-18T05:59:30.466Z,74.58
2023-02-18T06:02:03.153Z,73.75
2023-02-18T06:04:35.521Z,72.86
2023-02-18T06:07:08.315Z,73.96
2023-02-18T06:09:40.623Z,72.76
2023-02-18T06:12:13.062Z,73.03
2023-02-18T06:14:45.694Z,72.87
2023-02-18T06:17:24.418Z,71.94
2023-02-18T06:20:05.000Z,71.53
2023-02-18T06:22:35.774Z,70.59
2023-02-18T06:25:09.838Z,70.92
2023-02-18T06:27:45.032Z,70.79
2023-02-18T06:30:23.677Z,71.34
2023-02-18T06:33:08.352Z,71.47
2023-02-18T06:35:42.003Z,71.55
2023-02-18T06:38:17.240Z,71.04
2023-02-18T06:40:55.368Z,71.60
2023-02-18T06:43:31.320Z,71.16
2023-02-18T06:46:05.875Z,70.92
2023-02-18T06:48:42.058Z,69.78
2023-02-18T06:51:14.530Z,70.50
2023-02-18T06:53:52.284Z,70.16
2023-02-18T06:56:28.666Z,69.70
2023-02-18T06:59:05.792Z,68.58
2023-02-18T07:01:38.308Z,69.64
2023-02-18T07:04:13.356Z,68.88
2023-02-18T07:06:48.250Z,69.41
2023-02-18T07:09:20.557Z,68.26
2023-02-18T07:11:57.998Z,68.65
2023-02-18T07:14:33.529Z,68.39
2023-02-18T07:17:08.036Z,68.96
2023-02-18T07:19:40.561Z,69.21
2023-02-18T07:22:17.065Z,69.22
2023-02-18T07:24:56.295Z,68.27
2023-02-18T07:27:41.445Z,67.76
2023-02-18T07:30:17.295Z,67.65
2023-02-18T07:32:50.282Z,67.84
2023-02-18T07:35:25.484Z,68.40
2023-02-18T07:37:58.811Z,67.39
2023-02-18T07:40:36.791Z,66.71
2023-02-18T07:43:13.994Z,66.65
2023-02-18T07:45:49.465Z,66.97
2023-02-18T07:48:21.830Z,67.63
2023-02-18T07:50:55.445Z,67.14
2023-02-18T07:53:29.408Z,65.42
2023-02-18T07:56:02.984Z,65.17
2023-02-18T07:58:40.304Z,65.55
2023-02-18T08:01:17.283Z,65.91
2023-02-18T08:03:51.538Z,66.08
2023-02-18T08:06:28.460Z,66.28
2023-02-18T08:09:06.064Z,65.80
2023-02-18T08:11:47.275Z,65.38
2023-02-18T08:14:19.616Z,65.77
2023-02-18T08:16:55.263Z,66.34
2023-02-18T08:19:30.418Z,65.00
2023-02-18T08:22:10.019Z,66.13
2023-02-18T08:24:45.845Z,66.17
2023-02-18T08:27:19.440Z,66.04
2023-02-18T08:29:55.280Z,65.03
2023-02-18T08:32:30.528Z,64.68
2023-02-18T08:35:09.325Z,65.76
2023-02-18T08:37:52.931Z,65.04
2023-02-18T08:40:27.163Z,65.31
2023-02-18T08:42:59.429Z,66.24
2023-02-18T08:45:38.215Z,63.86
2023-02-18T08:48:19.261Z,64.13
2023-02-18T08:50:55.466Z,63.96
2023-02-18T08:53:31.390Z,64.53
2023-02-18T08:56:06.614Z,64.35
2023-02-18T08:58:38.985Z,64.44
2023-02-18T09:01:14.535Z,63.63
2023-02-18T09:03:48.484Z,61.99
2023-02-18T09:06:21.110Z,62.06
2023-02-18T09:08:57.545Z,62.69
2023-02-18T09:11:30.544Z,63.01
2023-02-18T09:14:04.570Z,62.21
2023-02-18T09:17:33.625Z,61.79
2023-02-18T09:20:08.730Z,62.68
2023-02-18T09:22:41.692Z,62.45
2023-02-18T09:25:15.349Z,63.02
2023-02-18T09:27:47.693Z,63.38
2023-02-18T09:30:20.575Z,63.29
2023-02-18T09:32:53.920Z,62.83
2023-02-18T09:35:26.215Z,63.41
2023-02-18T09:37:58.508Z,63.14
2023-02-18T09:40:35.991Z,63.32
2023-02-18T09:43:08.725Z,62.35
2023-02-18T09:45:41.137Z,62.61
2023-02-18T09:48:14.190Z,63.36
2023-02-18T09:50:54.025Z,62.60
2023-02-18T09:53:27.320Z,61.42
2023-02-18T09:56:03.227Z,62.09
2023-02-18T09:58:39.014Z,62.08
2023-02-18T10:01:33.121Z,61.96
2023-02-18T10:04:11.799Z,59.75
2023-02-18T10:06:46.550Z,60.52
2023-02-18T10:09:23.751Z,61.93
2023-02-18T10:12:01.705Z,60.89
2023-02-18T10:14:36.042Z,61.90
2023-02-18T10:17:12.244Z,61.61
2023-02-18T10:19:47.521Z,62.02
2023-02-18T10:22:21.656Z,60.76
2023-02-18T10:24:57.053Z,61.41
2023-02-18T10:27:32.158Z,59.94
2023-02-18T10:30:21.262Z,60.40
2023-02-18T10:33:24.795Z,59.03
2023-02-18T10:36:04.042Z,58.54
2023-02-18T10:38:47.751Z,60.44
2023-02-18T10:41:28.355Z,60.87
2023-02-18T10:44:05.015Z,61.57
2023-02-18T10:46:46.634Z,61.52
2023-02-18T10:49:36.276Z,61.57
2023-02-18T10:52:15.641Z,61.78
2023-02-18T10:55:00.720Z,61.63
2023-02-18T10:57:34.023Z,61.79
2023-02-18T11:00:18.966Z,62.29
2023-02-18T11:03:26.423Z,62.62
2023-02-18T11:06:00.208Z,63.19
2023-02-18T11:08:43.874Z,64.27
2023-02-18T11:11:22.312Z,66.57
2023-02-18T11:13:59.252Z,68.83
2023-02-18T11:16:42.232Z,70.02
2023-02-18T11:19:34.843Z,72.02
2023-02-18T11:22:20.058Z,72.92
2023-02-18T11:24:57.741Z,75.02
2023-02-18T11:27:40.185Z,75.81
2023-02-18T11:30:22.776Z,76.67
2023-02-18T11:33:00.406Z,77.03
2023-02-18T11:35:35.393Z,76.96
2023-02-18T11:38:24.536Z,77.60
2023-02-18T11:41:05.643Z,78.18
2023-02-18T11:43:43.065Z,79.39
2023-02-18T11:46:18.041Z,79.56
2023-02-18T11:48:51.440Z,80.01
2023-02-18T11:51:29.618Z,79.77
2023-02-18T11:57:40.055Z,79.94
2023-02-18T12:00:22.136Z,81.05
2023-02-18T12:02:57.910Z,80.53
2023-02-18T12:05:32.522Z,80.74
2023-02-18T12:08:12.283Z,81.16
2023-02-18T12:10:48.964Z,82.86
2023-02-18T12:13:35.637Z,81.60
2023-02-18T12:16:19.971Z,82.64
2023-02-18T12:19:12.583Z,82.64
2023-02-18T12:21:59.872Z,83.01
2023-02-18T12:24:44.239Z,82.72
2023-02-18T12:27:24.235Z,83.35
2023-02-18T12:30:23.486Z,82.55
2023-02-18T12:33:09.729Z,83.39
2023-02-18T12:36:01.948Z,83.46
2023-02-18T12:39:02.077Z,82.92
2023-02-18T12:41:49.799Z,83.79
2023-02-18T12:44:35.195Z,84.34
2023-02-18T12:47:37.908Z,83.93
2023-02-18T12:50:40.244Z,84.20
2023-02-18T12:53:35.916Z,84.10
2023-02-18T12:56:32.947Z,84.36
2023-02-18T12:59:17.408Z,85.37
2023-02-18T13:02:03.384Z,85.47
2023-02-18T13:04:48.474Z,86.09
2023-02-18T13:07:51.103Z,85.77
2023-02-18T13:10:38.141Z,86.35
2023-02-18T13:13:17.607Z,86.57
2023-02-18T13:15:55.294Z,86.76
2023-02-18T13:18:33.967Z,87.53
2023-02-18T13:21:16.241Z,88.21
2023-02-18T13:23:58.707Z,88.79
2023-02-18T13:26:33.834Z,88.76
2023-02-18T13:29:24.105Z,88.25
2023-02-18T13:32:08.070Z,89.26
2023-02-18T13:34:49.810Z,90.11
2023-02-18T13:37:29.084Z,89.70
2023-02-18T13:40:02.593Z,89.80
2023-02-18T13:42:39.551Z,89.53
2023-02-18T13:45:28.327Z,89.46
2023-02-18T13:48:02.051Z,90.04
2023-02-18T13:50:43.220Z,90.89
2023-02-18T13:53:33.386Z,92.05
2023-02-18T13:56:11.908Z,90.44
2023-02-18T13:58:50.660Z,91.48
2023-02-18T14:01:36.877Z,92.26
2023-02-18T14:04:46.055Z,92.43
2023-02-18T14:07:30.162Z,93.07
2023-02-18T14:10:05.364Z,92.31
2023-02-18T14:12:44.757Z,93.15
2023-02-18T14:15:52.542Z,93.45
2023-02-18T14:18:32.122Z,93.97
2023-02-18T14:21:36.809Z,93.53
2023-02-18T14:24:11.292Z,94.56
2023-02-18T14:26:51.943Z,95.24
2023-02-18T14:29:31.684Z,94.49
